Time;durP1;ratioP1;P1;durP2;ratioP2;P2;SDS_P1;SDS_P2;PMS_P1;PMS_P2;Temp;Humidity;BMP_temperature;BMP_pressure;BME280_temperature;BME280_humidity;BME280_pressure;Samples;Min_cycle;Max_cycle;Signal;HPM_P1;HPM_P2
2023/08/22 00:01:15;;;;;;;6.57;3.42;;;23.80;94.70;;;;;;5094881;28;20032;-53
2023/08/22 00:04:01;;;;;;;8.07;3.63;;;23.70;95.10;;;;;;5094672;28;20488;-53
2023/08/22 00:06:47;;;;;;;5.75;3.50;;;23.70;95.10;;;;;;5092861;28;20100;-53
2023/08/22 00:09:33;;;;;;;18.75;13.25;;;23.70;95.00;;;;;;5093442;28;20552;-56
2023/08/22 00:12:19;;;;;;;15.10;8.70;;;23.70;94.90;;;;;;5093996;28;20032;-51
2023/08/22 00:15:09;;;;;;;6.07;4.47;;;23.60;95.00;;;;;;5095446;27;20043;-51
2023/08/22 00:17:55;;;;;;;6.18;3.85;;;23.60;95.10;;;;;;5079588;28;20020;-52
2023/08/22 00:20:40;;;;;;;6.93;3.55;;;23.60;95.10;;;;;;5094200;28;20024;-53
2023/08/22 00:23:26;;;;;;;5.47;3.75;;;23.50;95.30;;;;;;5093081;28;20024;-55
2023/08/22 00:26:13;;;;;;;6.25;3.92;;;23.50;95.40;;;;;;5089886;28;20032;-55
2023/08/22 00:28:59;;;;;;;7.97;3.67;;;23.50;95.40;;;;;;5081882;28;20396;-55
2023/08/22 00:31:44;;;;;;;6.32;3.80;;;23.50;95.60;;;;;;5084876;28;20504;-53
2023/08/22 00:34:30;;;;;;;10.10;4.07;;;23.40;95.90;;;;;;5093646;28;20499;-50
2023/08/22 00:37:17;;;;;;;5.95;4.20;;;23.30;95.90;;;;;;5072334;28;20032;-52
2023/08/22 00:40:04;;;;;;;5.35;3.97;;;23.20;96.20;;;;;;5072466;28;20033;-53
2023/08/22 00:42:50;;;;;;;6.32;3.60;;;23.20;96.10;;;;;;5072450;28;20056;-52
2023/08/22 00:45:36;;;;;;;6.40;3.65;;;23.20;96.10;;;;;;5073420;28;20024;-54
2023/08/22 00:48:22;;;;;;;5.65;3.75;;;23.30;95.90;;;;;;5072678;28;20032;-52
2023/08/22 00:51:08;;;;;;;6.80;3.80;;;23.30;96.10;;;;;;5072001;28;20025;-54
2023/08/22 00:53:54;;;;;;;5.13;3.85;;;23.20;96.10;;;;;;5073078;28;20120;-56
2023/08/22 00:56:41;;;;;;;7.15;4.15;;;23.20;96.00;;;;;;5071834;28;20504;-55
2023/08/22 00:59:27;;;;;;;6.47;4.07;;;23.10;96.40;;;;;;5083102;28;20070;-51
2023/08/22 01:02:14;;;;;;;5.72;3.97;;;23.10;96.00;;;;;;5091431;28;20052;-55
2023/08/22 01:05:00;;;;;;;7.47;3.70;;;23.00;96.10;;;;;;5072133;28;20404;-53
2023/08/22 01:08:14;;;;;;;5.18;3.75;;;23.00;96.10;;;;;;5091909;28;20392;-53
2023/08/22 01:11:10;;;;;;;4.47;3.58;;;23.00;96.00;;;;;;5067708;28;20056;-51
2023/08/22 01:13:57;;;;;;;5.70;3.95;;;23.00;96.10;;;;;;5076155;28;20508;-54
2023/08/22 01:16:44;;;;;;;8.82;4.43;;;23.00;96.10;;;;;;5091620;28;20077;-56
2023/08/22 01:19:30;;;;;;;7.65;3.42;;;22.90;96.10;;;;;;5091380;28;20029;-51
2023/08/22 01:22:16;;;;;;;5.60;3.92;;;22.90;96.20;;;;;;5092331;28;20111;-54
2023/08/22 01:25:02;;;;;;;5.05;3.55;;;22.90;96.30;;;;;;5091754;28;20077;-55
2023/08/22 01:27:54;;;;;;;5.90;3.85;;;22.90;96.30;;;;;;5091202;28;20064;-50
2023/08/22 01:30:53;;;;;;;5.63;3.80;;;22.80;96.40;;;;;;5091487;28;20037;-51
2023/08/22 01:34:21;;;;;;;6.25;3.90;;;22.90;96.40;;;;;;5091879;28;20054;-54
2023/08/22 01:37:10;;;;;;;8.88;3.55;;;22.80;96.30;;;;;;5052482;28;20481;-54
2023/08/22 01:39:57;;;;;;;7.13;3.60;;;22.80;96.50;;;;;;5071066;28;20032;-54
2023/08/22 01:42:43;;;;;;;5.97;3.60;;;22.70;96.30;;;;;;5072578;28;20484;-52
2023/08/22 01:45:29;;;;;;;6.90;3.92;;;22.70;96.30;;;;;;5072126;28;20426;-52
2023/08/22 01:48:15;;;;;;;6.80;3.70;;;22.70;96.20;;;;;;5072034;28;20473;-50
2023/08/22 01:51:02;;;;;;;8.02;3.40;;;22.70;96.10;;;;;;5070628;28;20035;-50
2023/08/22 01:53:48;;;;;;;4.93;3.65;;;22.60;96.20;;;;;;5071596;28;20109;-48
2023/08/22 01:56:34;;;;;;;4.63;3.40;;;22.50;96.40;;;;;;5071744;28;20078;-52
2023/08/22 01:59:20;;;;;;;9.07;3.85;;;22.50;96.50;;;;;;5084901;28;20032;-54
2023/08/22 02:02:07;;;;;;;8.43;4.00;;;22.60;96.40;;;;;;5091110;28;20070;-53
2023/08/22 02:04:53;;;;;;;5.30;3.97;;;22.50;96.40;;;;;;5092695;28;20028;-54
2023/08/22 02:07:39;;;;;;;6.78;3.95;;;22.50;96.70;;;;;;5091368;28;20493;-54
2023/08/22 02:10:25;;;;;;;5.53;3.70;;;22.50;96.50;;;;;;5092384;28;20520;-51
2023/08/22 02:13:11;;;;;;;4.90;3.58;;;22.40;97.00;;;;;;5090950;28;20024;-51
2023/08/22 02:15:58;;;;;;;6.10;3.53;;;22.50;96.80;;;;;;5092130;28;20024;-54
2023/08/22 02:18:43;;;;;;;5.45;3.70;;;22.50;96.90;;;;;;5092202;28;20039;-54
2023/08/22 02:21:29;;;;;;;9.55;3.90;;;22.60;96.60;;;;;;5091441;28;20107;-53
2023/08/22 02:24:15;;;;;;;10.00;4.60;;;22.50;96.50;;;;;;5091451;28;20035;-56
2023/08/22 02:27:03;;;;;;;7.60;4.00;;;22.50;96.40;;;;;;5091189;28;20021;-53
2023/08/22 02:29:49;;;;;;;7.30;3.53;;;22.40;96.20;;;;;;5092137;28;20024;-52
2023/08/22 02:32:36;;;;;;;7.28;3.58;;;22.40;96.30;;;;;;5091019;28;20504;-56
2023/08/22 02:35:22;;;;;;;6.47;4.10;;;22.40;96.20;;;;;;5056662;28;20016;-54
2023/08/22 02:38:08;;;;;;;5.18;3.45;;;22.40;96.30;;;;;;5071058;28;20043;-54
2023/08/22 02:40:54;;;;;;;5.47;3.50;;;22.40;96.40;;;;;;5070985;28;20497;-54
2023/08/22 02:43:40;;;;;;;6.78;3.60;;;22.50;96.30;;;;;;5071420;28;20051;-53
2023/08/22 02:46:26;;;;;;;6.40;3.60;;;22.50;96.20;;;;;;5071511;28;20025;-55
2023/08/22 02:49:12;;;;;;;6.63;4.10;;;22.50;96.30;;;;;;5056362;28;20028;-55
2023/08/22 02:51:58;;;;;;;9.57;4.07;;;22.50;96.20;;;;;;5071468;28;20540;-54
2023/08/22 02:54:44;;;;;;;6.05;3.90;;;22.50;96.10;;;;;;5057512;28;20024;-51
2023/08/22 02:57:30;;;;;;;9.10;4.47;;;22.40;96.10;;;;;;5071469;28;20039;-50
2023/08/22 03:00:18;;;;;;;8.82;5.35;;;22.40;96.40;;;;;;5071065;28;20036;-51
2023/08/22 03:03:04;;;;;;;6.35;3.80;;;22.40;96.60;;;;;;5072133;28;20032;-55
2023/08/22 03:05:50;;;;;;;9.32;3.88;;;22.30;96.90;;;;;;5071487;28;20029;-56
2023/08/22 03:08:36;;;;;;;5.88;3.90;;;22.20;96.90;;;;;;5070353;28;20094;-53
2023/08/22 03:11:22;;;;;;;5.35;3.88;;;22.20;96.50;;;;;;5070869;28;20063;-50
2023/08/22 03:14:07;;;;;;;7.57;4.13;;;22.20;96.60;;;;;;5056321;28;20021;-51
2023/08/22 03:16:53;;;;;;;5.88;3.65;;;22.20;96.30;;;;;;5070430;28;20021;-51
2023/08/22 03:19:40;;;;;;;5.60;3.60;;;22.30;96.30;;;;;;5071325;28;20083;-52
2023/08/22 03:22:26;;;;;;;5.70;3.75;;;22.30;96.20;;;;;;5071005;28;20113;-53
2023/08/22 03:25:12;;;;;;;6.70;3.90;;;22.20;96.30;;;;;;5072664;28;20447;-53
2023/08/22 03:27:57;;;;;;;6.85;4.25;;;22.20;95.90;;;;;;5079928;28;20029;-54
2023/08/22 03:30:43;;;;;;;5.32;3.50;;;22.20;95.90;;;;;;5085513;28;20038;-53
2023/08/22 03:33:31;;;;;;;8.38;3.70;;;22.20;95.90;;;;;;5071044;28;20024;-50
2023/08/22 03:36:16;;;;;;;6.85;3.90;;;22.20;96.00;;;;;;5084755;28;20039;-52
2023/08/22 03:39:02;;;;;;;8.20;3.58;;;22.20;96.10;;;;;;5077918;28;20104;-54
2023/08/22 03:41:48;;;;;;;5.60;3.30;;;22.20;96.00;;;;;;5074745;28;20029;-52
2023/08/22 03:44:34;;;;;;;8.57;3.67;;;22.20;95.90;;;;;;5073997;28;20021;-55
2023/08/22 03:47:20;;;;;;;7.90;3.85;;;22.20;95.80;;;;;;5074429;28;20055;-56
2023/08/22 03:50:06;;;;;;;5.22;3.72;;;22.20;96.00;;;;;;5075231;28;20024;-52
2023/08/22 03:52:52;;;;;;;6.93;4.03;;;22.10;96.00;;;;;;5075070;28;20162;-54
2023/08/22 03:55:39;;;;;;;6.22;3.65;;;22.20;96.10;;;;;;5074919;28;20051;-51
2023/08/22 03:58:25;;;;;;;6.53;3.85;;;22.20;96.00;;;;;;5074303;28;20025;-49
2023/08/22 04:01:11;;;;;;;6.75;4.00;;;22.10;95.90;;;;;;5075332;28;20021;-55
2023/08/22 04:03:57;;;;;;;9.30;4.40;;;22.10;96.00;;;;;;5074372;28;20025;-53
2023/08/22 04:06:43;;;;;;;5.32;3.90;;;22.10;96.00;;;;;;5073796;28;20037;-51
2023/08/22 04:09:29;;;;;;;5.03;3.47;;;22.10;96.00;;;;;;5074139;28;20056;-55
2023/08/22 04:12:15;;;;;;;7.50;3.60;;;22.00;96.40;;;;;;5072903;28;20033;-49
2023/08/22 04:15:01;;;;;;;7.88;3.92;;;22.00;96.40;;;;;;5074211;28;20560;-49
2023/08/22 04:17:47;;;;;;;8.90;4.32;;;22.00;96.30;;;;;;5072623;28;20024;-47
2023/08/22 04:20:33;;;;;;;9.73;4.53;;;22.00;96.50;;;;;;5074127;28;20029;-51
2023/08/22 04:23:19;;;;;;;8.23;4.00;;;21.90;96.40;;;;;;5073871;28;20025;-54
2023/08/22 04:26:04;;;;;;;4.38;3.95;;;22.00;96.60;;;;;;5073868;28;20069;-54
2023/08/22 04:28:50;;;;;;;6.00;4.00;;;22.00;96.60;;;;;;5090520;28;20031;-56
2023/08/22 04:31:36;;;;;;;10.65;3.85;;;22.00;96.60;;;;;;5082329;28;20073;-50
2023/08/22 04:34:22;;;;;;;7.50;4.43;;;22.00;96.70;;;;;;5058823;28;20081;-50
2023/08/22 04:37:08;;;;;;;7.38;4.53;;;22.00;96.40;;;;;;5071736;28;20025;-55
2023/08/22 04:39:54;;;;;;;5.75;4.03;;;22.00;96.50;;;;;;5088124;28;20023;-52
2023/08/22 04:42:40;;;;;;;6.55;3.88;;;22.10;96.50;;;;;;5091718;28;20048;-53
2023/08/22 04:45:26;;;;;;;8.63;4.47;;;22.20;96.50;;;;;;5092654;28;20059;-55
2023/08/22 04:48:12;;;;;;;7.65;4.07;;;22.10;96.70;;;;;;5077784;28;20035;-54
2023/08/22 04:50:58;;;;;;;7.60;4.30;;;22.10;96.90;;;;;;5093113;28;20021;-54
2023/08/22 04:53:46;;;;;;;5.72;3.90;;;22.10;97.00;;;;;;5092371;28;20020;-55
2023/08/22 04:56:32;;;;;;;6.18;5.00;;;22.20;97.10;;;;;;5092939;28;20021;-49
2023/08/22 04:59:18;;;;;;;10.20;5.07;;;22.20;97.40;;;;;;5092310;28;20020;-50
2023/08/22 05:02:04;;;;;;;20.33;14.80;;;22.20;97.20;;;;;;5092379;28;20110;-51
2023/08/22 05:04:50;;;;;;;11.20;7.22;;;22.20;97.60;;;;;;5092246;28;20093;-53
2023/08/22 05:07:37;;;;;;;15.18;8.48;;;22.20;98.00;;;;;;5093259;28;20036;-56
2023/08/22 05:10:24;;;;;;;23.15;15.68;;;22.20;97.80;;;;;;5092148;28;20031;-53
2023/08/22 05:13:10;;;;;;;14.25;6.05;;;22.20;98.00;;;;;;5092158;28;20032;-54
2023/08/22 05:15:56;;;;;;;9.68;5.70;;;22.20;97.70;;;;;;5091711;28;20060;-53
2023/08/22 05:18:42;;;;;;;8.65;5.07;;;22.20;97.40;;;;;;5072852;28;20078;-54
2023/08/22 05:21:28;;;;;;;10.90;4.90;;;22.30;97.20;;;;;;5083247;28;20081;-56
2023/08/22 05:24:14;;;;;;;17.55;6.07;;;22.40;97.30;;;;;;5078342;28;20020;-51
2023/08/22 05:27:00;;;;;;;11.25;5.65;;;22.50;96.80;;;;;;5090731;28;20024;-49
2023/08/22 05:29:46;;;;;;;14.70;6.28;;;22.40;96.60;;;;;;5090684;28;20115;-52
2023/08/22 05:32:32;;;;;;;9.90;4.72;;;22.30;96.40;;;;;;5087146;28;20106;-52
2023/08/22 05:35:18;;;;;;;7.88;4.65;;;22.20;96.60;;;;;;5089919;28;20028;-55
2023/08/22 05:38:04;;;;;;;8.35;4.85;;;22.30;96.40;;;;;;5091442;28;20028;-53
2023/08/22 05:40:50;;;;;;;24.83;14.82;;;22.30;96.20;;;;;;5091450;28;20020;-56
2023/08/22 05:43:36;;;;;;;18.95;10.27;;;22.40;96.00;;;;;;5076977;28;20393;-53
2023/08/22 05:46:22;;;;;;;12.57;6.00;;;22.50;96.00;;;;;;5089625;28;20101;-51
2023/08/22 05:49:08;;;;;;;12.95;8.65;;;22.50;96.00;;;;;;5075267;28;20024;-51
2023/08/22 05:52:04;;;;;;;9.45;5.38;;;22.50;95.80;;;;;;5090188;28;20299;-50
2023/08/22 05:54:50;;;;;;;9.40;5.28;;;22.50;95.60;;;;;;5090868;28;20020;-50
2023/08/22 05:57:36;;;;;;;7.10;4.60;;;22.40;96.00;;;;;;5091221;28;20508;-51
2023/08/22 06:00:22;;;;;;;6.60;4.50;;;22.40;95.70;;;;;;5091984;28;20362;-50
2023/08/22 06:03:09;;;;;;;8.95;5.15;;;22.40;96.00;;;;;;5091658;28;20602;-49
2023/08/22 06:05:55;;;;;;;13.02;4.70;;;22.40;95.90;;;;;;5077539;28;20032;-52
2023/08/22 06:08:41;;;;;;;7.95;4.90;;;22.50;95.70;;;;;;5077012;28;20039;-52
2023/08/22 06:11:26;;;;;;;10.27;4.82;;;22.60;95.70;;;;;;5076752;28;20085;-48
2023/08/22 06:14:12;;;;;;;7.20;4.65;;;22.60;95.60;;;;;;5091499;28;20598;-47
2023/08/22 06:16:58;;;;;;;7.90;5.22;;;22.50;95.80;;;;;;5090273;28;20028;-46
2023/08/22 06:19:48;;;;;;;10.40;4.78;;;22.50;95.80;;;;;;5091046;28;20111;-52
2023/08/22 06:22:34;;;;;;;8.45;5.20;;;22.70;95.50;;;;;;5091298;28;20120;-49
2023/08/22 06:25:20;;;;;;;7.00;4.55;;;22.90;95.40;;;;;;5090923;28;20024;-52
2023/08/22 06:28:06;;;;;;;9.75;5.07;;;23.00;95.30;;;;;;5090958;28;20107;-49
2023/08/22 06:30:52;;;;;;;11.48;6.13;;;23.10;94.90;;;;;;5090734;28;20046;-52
2023/08/22 06:33:38;;;;;;;8.32;4.90;;;23.10;95.30;;;;;;5072546;28;20043;-52
2023/08/22 06:36:23;;;;;;;8.68;5.20;;;23.10;95.00;;;;;;5089585;28;20453;-54
2023/08/22 06:39:09;;;;;;;8.13;5.15;;;23.10;94.90;;;;;;5077042;28;20028;-52
2023/08/22 06:41:55;;;;;;;8.65;4.45;;;23.10;95.10;;;;;;5090576;28;20029;-53
2023/08/22 06:44:41;;;;;;;10.70;4.68;;;23.00;94.90;;;;;;5076635;28;20020;-54
2023/08/22 06:47:27;;;;;;;9.00;4.97;;;23.10;95.40;;;;;;5090986;28;20024;-53
2023/08/22 06:50:13;;;;;;;8.90;4.30;;;23.10;95.50;;;;;;5089748;28;20111;-56
2023/08/22 06:53:00;;;;;;;6.60;4.18;;;23.00;95.70;;;;;;5090362;28;20028;-54
2023/08/22 06:55:47;;;;;;;7.55;4.50;;;23.10;95.90;;;;;;5090454;28;20036;-50
2023/08/22 06:58:33;;;;;;;6.07;4.15;;;23.10;95.70;;;;;;5075609;28;20455;-47
2023/08/22 07:01:19;;;;;;;6.85;4.82;;;23.20;95.60;;;;;;5095509;28;20397;-47
2023/08/22 07:04:05;;;;;;;7.60;4.85;;;23.30;95.50;;;;;;5096507;28;20035;-47
2023/08/22 07:06:51;;;;;;;7.43;5.20;;;23.30;95.30;;;;;;5095193;28;20103;-51
2023/08/22 07:09:37;;;;;;;6.55;5.18;;;23.30;95.40;;;;;;5100131;27;20096;-52
2023/08/22 07:12:23;;;;;;;9.50;4.82;;;23.30;95.30;;;;;;5096137;28;20103;-52
2023/08/22 07:15:09;;;;;;;8.32;4.95;;;23.30;95.30;;;;;;5095981;28;20026;-55
2023/08/22 07:17:56;;;;;;;5.97;4.50;;;23.20;95.80;;;;;;5095201;28;20532;-52
2023/08/22 07:20:42;;;;;;;11.70;5.35;;;23.00;95.70;;;;;;5079605;28;20021;-55
2023/08/22 07:23:28;;;;;;;7.65;4.40;;;23.00;95.90;;;;;;5093903;28;20073;-53
2023/08/22 07:26:14;;;;;;;7.18;4.88;;;22.90;96.10;;;;;;5095278;28;20032;-54
2023/08/22 07:29:00;;;;;;;24.15;13.90;;;23.00;95.90;;;;;;5095338;28;20028;-52
2023/08/22 07:31:46;;;;;;;10.18;5.65;;;23.10;95.80;;;;;;5079312;28;20127;-50
2023/08/22 07:34:32;;;;;;;7.82;5.05;;;23.20;95.40;;;;;;5091218;28;20040;-53
2023/08/22 07:37:18;;;;;;;8.38;4.80;;;23.10;95.70;;;;;;5093390;28;20434;-52
2023/08/22 07:40:05;;;;;;;8.90;5.35;;;23.10;95.90;;;;;;5094543;28;20021;-50
2023/08/22 07:42:50;;;;;;;5.55;4.93;;;23.30;95.70;;;;;;5082713;28;20035;-49
2023/08/22 07:45:36;;;;;;;7.55;4.78;;;23.40;95.80;;;;;;5087968;28;20466;-51
2023/08/22 07:48:22;;;;;;;7.80;4.55;;;23.40;95.60;;;;;;5084258;28;20028;-52
2023/08/22 07:51:08;;;;;;;11.55;5.28;;;23.50;95.60;;;;;;5088765;28;20052;-49
2023/08/22 07:53:54;;;;;;;10.77;5.82;;;23.50;95.90;;;;;;5081943;28;20032;-46
2023/08/22 07:56:40;;;;;;;9.25;5.28;;;23.40;96.00;;;;;;5088988;28;20464;-49
2023/08/22 07:59:26;;;;;;;10.98;5.50;;;23.40;95.80;;;;;;5084681;28;20070;-53
2023/08/22 08:02:12;;;;;;;7.40;5.10;;;23.30;96.10;;;;;;5085713;28;20369;-53
2023/08/22 08:04:58;;;;;;;8.38;5.25;;;23.50;96.10;;;;;;5083880;28;20558;-55
2023/08/22 08:07:45;;;;;;;9.85;5.30;;;23.60;95.90;;;;;;5084169;28;20537;-51
2023/08/22 08:10:34;;;;;;;11.43;5.40;;;23.40;96.30;;;;;;5093193;28;20036;-53
2023/08/22 08:13:20;;;;;;;10.70;5.25;;;23.50;96.20;;;;;;5090035;28;20400;-48
2023/08/22 08:16:06;;;;;;;12.88;5.95;;;23.60;96.00;;;;;;5084828;28;20035;-51
2023/08/22 08:18:52;;;;;;;10.30;6.13;;;23.40;96.10;;;;;;5104408;28;20024;-52
2023/08/22 08:21:38;;;;;;;10.80;6.43;;;23.30;96.10;;;;;;5114755;28;20103;-54
2023/08/22 08:24:24;;;;;;;14.65;6.30;;;23.40;95.70;;;;;;5112881;28;20024;-52
2023/08/22 08:27:10;;;;;;;9.65;6.15;;;23.50;96.00;;;;;;5113164;28;20034;-48
2023/08/22 08:29:56;;;;;;;9.75;6.18;;;23.50;95.90;;;;;;5109283;28;20040;-53
2023/08/22 08:32:42;;;;;;;9.63;6.55;;;23.80;95.80;;;;;;5095896;28;20025;-51
2023/08/22 08:35:28;;;;;;;7.72;5.95;;;23.80;95.20;;;;;;5094012;28;20024;-55
2023/08/22 08:38:14;;;;;;;10.52;5.68;;;24.00;95.50;;;;;;5092256;28;20028;-50
2023/08/22 08:41:02;;;;;;;12.77;6.32;;;24.10;95.00;;;;;;5092196;28;20040;-54
2023/08/22 08:43:49;;;;;;;9.20;5.88;;;24.10;95.30;;;;;;5092367;28;20036;-51
2023/08/22 08:46:36;;;;;;;11.85;6.13;;;24.20;95.50;;;;;;5092519;28;20088;-51
2023/08/22 08:49:23;;;;;;;10.63;6.07;;;24.20;95.20;;;;;;5077228;28;20032;-51
2023/08/22 08:52:11;;;;;;;10.10;6.43;;;24.00;95.40;;;;;;5092790;28;20102;-48
2023/08/22 08:54:58;;;;;;;13.07;6.15;;;23.90;95.60;;;;;;5093300;28;20028;-51
2023/08/22 08:57:44;;;;;;;10.90;6.28;;;24.00;95.50;;;;;;5092187;28;20027;-52
2023/08/22 09:00:31;;;;;;;8.02;6.10;;;24.10;95.50;;;;;;5092547;28;20028;-51
2023/08/22 09:03:18;;;;;;;10.48;6.20;;;24.30;95.20;;;;;;5091851;28;20118;-51
2023/08/22 09:06:04;;;;;;;12.27;7.05;;;24.30;95.40;;;;;;5092211;28;20024;-53
2023/08/22 09:09:04;;;;;;;10.60;7.22;;;24.30;95.30;;;;;;5091869;28;20554;-54
2023/08/22 09:11:51;;;;;;;7.70;6.18;;;24.30;95.20;;;;;;5092853;28;20570;-55
2023/08/22 09:14:44;;;;;;;10.48;6.75;;;24.30;95.60;;;;;;5092287;28;20024;-49
2023/08/22 09:17:30;;;;;;;7.85;6.13;;;24.50;95.50;;;;;;5091865;28;20031;-49
2023/08/22 09:20:18;;;;;;;10.70;6.80;;;24.70;94.90;;;;;;5092936;28;20115;-46
2023/08/22 09:23:04;;;;;;;11.52;7.10;;;25.00;94.90;;;;;;5092050;28;20443;-47
2023/08/22 09:25:50;;;;;;;10.43;6.95;;;24.90;94.90;;;;;;5092286;28;20039;-51
2023/08/22 09:28:39;;;;;;;12.23;7.35;;;25.10;94.80;;;;;;5077695;28;20508;-45
2023/08/22 09:31:25;;;;;;;12.05;6.78;;;25.20;94.60;;;;;;5092579;28;20032;-48
2023/08/22 09:34:13;;;;;;;9.82;7.03;;;25.30;94.70;;;;;;5077411;28;20126;-51
2023/08/22 09:37:00;;;;;;;9.55;6.68;;;25.10;94.70;;;;;;5091445;28;20397;-53
2023/08/22 09:39:54;;;;;;;9.45;6.75;;;25.10;94.90;;;;;;5092362;28;20020;-47
2023/08/22 09:42:40;;;;;;;8.48;6.95;;;25.20;94.80;;;;;;5092043;28;20488;-55
2023/08/22 09:45:31;;;;;;;14.18;7.05;;;25.30;94.60;;;;;;5091796;28;20032;-54
2023/08/22 09:48:30;;;;;;;9.68;6.65;;;25.10;94.70;;;;;;5091336;28;20028;-51
2023/08/22 09:51:19;;;;;;;12.93;7.45;;;25.20;95.10;;;;;;5091521;28;20043;-51
2023/08/22 09:54:06;;;;;;;13.50;7.40;;;25.40;94.70;;;;;;5092004;28;20032;-49
2023/08/22 09:56:52;;;;;;;10.80;6.93;;;25.60;94.30;;;;;;5091745;28;20020;-50
2023/08/22 09:59:39;;;;;;;9.68;7.10;;;25.80;94.30;;;;;;5089479;28;20028;-49
2023/08/22 10:02:26;;;;;;;9.15;7.65;;;25.60;94.50;;;;;;5081835;28;20492;-50
2023/08/22 10:05:13;;;;;;;11.77;7.18;;;25.70;94.60;;;;;;5082773;28;20024;-52
2023/08/22 10:07:59;;;;;;;11.77;6.78;;;25.80;94.50;;;;;;5079929;28;20525;-50
2023/08/22 10:10:47;;;;;;;11.98;7.50;;;26.10;94.20;;;;;;5082482;28;20028;-53
2023/08/22 10:13:36;;;;;;;10.10;7.20;;;26.10;94.20;;;;;;5081412;28;20041;-51
2023/08/22 10:16:27;;;;;;;12.88;7.45;;;26.30;94.00;;;;;;5082607;28;20040;-51
2023/08/22 10:19:13;;;;;;;12.82;7.90;;;26.50;94.20;;;;;;5082112;28;20021;-49
2023/08/22 10:22:07;;;;;;;12.95;8.50;;;26.60;93.40;;;;;;5079587;28;20565;-50
2023/08/22 10:25:02;;;;;;;12.55;8.55;;;26.60;93.30;;;;;;5064862;28;20094;-47
2023/08/22 10:27:48;;;;;;;12.80;8.10;;;26.70;93.10;;;;;;5082287;28;20043;-53
2023/08/22 10:31:04;;;;;;;8.93;7.68;;;26.60;93.60;;;;;;5081612;28;20487;-53
2023/08/22 10:34:00;;;;;;;10.65;7.75;;;26.70;93.30;;;;;;5084099;28;20048;-49
2023/08/22 10:36:56;;;;;;;12.73;7.97;;;26.70;93.40;;;;;;5067552;28;21434;-53
2023/08/22 10:39:50;;;;;;;9.68;7.78;;;26.70;92.90;;;;;;5082228;28;20392;-49
2023/08/22 10:42:36;;;;;;;10.15;7.70;;;26.40;93.50;;;;;;5081616;28;20056;-50
2023/08/22 10:45:22;;;;;;;9.15;7.00;;;26.40;93.00;;;;;;5082523;28;20059;-48
2023/08/22 10:48:10;;;;;;;11.52;7.35;;;26.60;93.40;;;;;;5091785;28;20041;-50
2023/08/22 10:51:08;;;;;;;8.90;8.00;;;26.80;93.30;;;;;;5090491;28;20483;-53
2023/08/22 10:54:14;;;;;;;10.20;7.85;;;27.00;93.10;;;;;;5090246;28;20446;-52
2023/08/22 10:57:16;;;;;;;9.02;7.38;;;27.20;92.90;;;;;;5092775;28;20488;-49
2023/08/22 11:00:13;;;;;;;10.50;7.60;;;27.20;92.80;;;;;;5091821;28;20044;-49
2023/08/22 11:02:59;;;;;;;11.40;7.82;;;26.90;92.90;;;;;;5090606;28;20035;-50
2023/08/22 11:05:47;;;;;;;9.65;7.45;;;27.10;93.00;;;;;;5090534;28;20214;-52
2023/08/22 11:08:33;;;;;;;12.10;8.40;;;27.10;92.60;;;;;;5076003;28;20428;-48
2023/08/22 11:11:22;;;;;;;8.90;7.80;;;27.10;92.00;;;;;;5090670;28;20028;-50
2023/08/22 11:14:08;;;;;;;9.35;8.13;;;27.30;92.20;;;;;;5091526;28;20059;-54
2023/08/22 11:16:54;;;;;;;13.13;7.75;;;27.30;92.60;;;;;;5070239;28;20033;-56
2023/08/22 11:19:41;;;;;;;8.98;7.28;;;27.30;92.40;;;;;;5071111;28;20036;-53
2023/08/22 11:22:27;;;;;;;8.88;7.10;;;27.50;92.20;;;;;;5071751;28;20025;-56
2023/08/22 11:25:13;;;;;;;7.28;6.43;;;27.30;91.90;;;;;;5056217;28;20037;-56
2023/08/22 11:27:59;;;;;;;10.90;7.40;;;27.30;92.10;;;;;;5070853;28;20027;-56
2023/08/22 11:30:50;;;;;;;10.00;7.20;;;27.30;91.80;;;;;;5070270;28;20512;-54
2023/08/22 11:33:47;;;;;;;11.85;7.13;;;27.40;91.60;;;;;;5070620;28;20604;-56
2023/08/22 11:36:33;;;;;;;10.43;7.40;;;27.40;91.60;;;;;;5070780;28;20082;-52
2023/08/22 11:39:19;;;;;;;9.82;7.22;;;27.30;91.20;;;;;;5071638;28;20025;-54
2023/08/22 11:42:05;;;;;;;11.20;7.20;;;27.30;91.30;;;;;;5071995;28;20033;-53
2023/08/22 11:45:04;;;;;;;12.20;7.32;;;27.40;91.70;;;;;;5071985;28;20078;-56
2023/08/22 11:47:56;;;;;;;10.40;6.88;;;27.30;91.30;;;;;;5075110;28;20031;-54
2023/08/22 11:50:44;;;;;;;10.70;7.40;;;27.40;91.40;;;;;;5074065;28;20036;-52
2023/08/22 11:53:30;;;;;;;9.63;7.30;;;27.40;90.90;;;;;;5083206;28;20063;-54
2023/08/22 11:56:18;;;;;;;9.38;7.10;;;27.20;91.40;;;;;;5093460;28;20031;-55
2023/08/22 11:59:08;;;;;;;9.57;6.45;;;27.10;90.80;;;;;;5094878;28;20020;-56
2023/08/22 12:01:55;;;;;;;11.27;6.63;;;27.20;91.00;;;;;;5078806;28;20031;-52
2023/08/22 12:04:42;;;;;;;10.65;6.97;;;27.20;91.30;;;;;;5093876;28;20447;-54
2023/08/22 12:07:28;;;;;;;6.88;6.10;;;27.30;91.40;;;;;;5094365;28;20032;-55
2023/08/22 12:10:14;;;;;;;8.00;5.90;;;27.40;91.40;;;;;;5094082;28;20031;-56
2023/08/22 12:13:00;;;;;;;9.57;5.75;;;27.60;90.30;;;;;;5094643;28;20032;-53
2023/08/22 12:15:47;;;;;;;12.00;6.10;;;27.60;90.50;;;;;;5093922;28;20040;-56
2023/08/22 12:18:34;;;;;;;11.60;6.00;;;27.60;90.70;;;;;;5094366;28;20035;-57
2023/08/22 12:21:20;;;;;;;10.30;5.57;;;27.70;90.50;;;;;;5093186;28;20507;-54
2023/08/22 12:24:06;;;;;;;10.27;6.40;;;27.60;90.60;;;;;;5093447;28;20024;-55
2023/08/22 12:26:52;;;;;;;10.00;5.50;;;27.60;90.70;;;;;;5094118;28;20025;-53
2023/08/22 12:29:40;;;;;;;10.45;5.80;;;27.60;90.70;;;;;;5065506;28;20111;-55
2023/08/22 12:32:26;;;;;;;10.48;5.45;;;27.80;90.40;;;;;;5094277;28;20044;-55
2023/08/22 12:35:12;;;;;;;10.23;5.75;;;28.00;90.40;;;;;;5093261;28;20020;-52
2023/08/22 12:37:59;;;;;;;9.65;5.43;;;28.30;90.00;;;;;;5092492;28;20044;-51
2023/08/22 12:40:45;;;;;;;9.70;5.03;;;28.20;90.10;;;;;;5093212;28;20051;-56
2023/08/22 12:43:31;;;;;;;7.93;5.47;;;28.00;90.20;;;;;;5094349;28;20035;-54
2023/08/22 12:46:17;;;;;;;8.15;5.22;;;28.00;89.70;;;;;;5094164;28;20032;-54
2023/08/22 12:49:02;;;;;;;6.72;5.07;;;28.10;90.30;;;;;;5092959;28;20024;-54
2023/08/22 12:51:48;;;;;;;9.07;4.78;;;28.50;89.80;;;;;;5092673;28;20066;-50
2023/08/22 12:54:34;;;;;;;8.63;5.18;;;28.50;89.20;;;;;;5093948;28;20052;-54
2023/08/22 12:57:20;;;;;;;8.48;4.93;;;28.60;89.40;;;;;;5092951;28;20021;-53
2023/08/22 13:00:08;;;;;;;11.82;5.90;;;28.30;89.30;;;;;;5093920;28;20504;-56
2023/08/22 13:02:55;;;;;;;10.13;5.68;;;28.00;89.70;;;;;;5077630;28;20039;-52
2023/08/22 13:05:41;;;;;;;8.95;5.10;;;28.00;90.10;;;;;;5088579;28;20056;-53
2023/08/22 13:08:27;;;;;;;8.70;5.30;;;28.20;89.70;;;;;;5087372;28;20101;-55
2023/08/22 13:11:13;;;;;;;11.77;5.50;;;28.10;90.00;;;;;;5088190;28;20424;-54
2023/08/22 13:13:59;;;;;;;11.00;5.70;;;28.30;89.70;;;;;;5085968;28;20083;-51
2023/08/22 13:16:45;;;;;;;7.65;4.70;;;28.30;89.00;;;;;;5080362;28;20021;-54
2023/08/22 13:19:31;;;;;;;8.93;5.38;;;28.30;90.10;;;;;;5083686;28;20028;-56
2023/08/22 13:22:17;;;;;;;8.85;4.97;;;28.10;89.60;;;;;;5082177;28;20058;-55
2023/08/22 13:25:04;;;;;;;7.68;4.55;;;28.00;89.30;;;;;;5080397;28;20036;-53
2023/08/22 13:27:49;;;;;;;8.68;5.20;;;28.00;90.00;;;;;;5065914;28;20027;-55
2023/08/22 13:30:35;;;;;;;10.15;5.22;;;28.10;90.00;;;;;;5083777;28;20036;-56
2023/08/22 13:33:21;;;;;;;9.60;5.18;;;28.10;89.20;;;;;;5078510;28;20558;-56
2023/08/22 13:36:07;;;;;;;9.05;5.32;;;28.00;89.60;;;;;;5092893;28;20052;-57
2023/08/22 13:38:53;;;;;;;7.32;5.00;;;28.10;88.80;;;;;;5091611;28;20081;-52
2023/08/22 13:41:39;;;;;;;7.35;4.97;;;28.20;89.10;;;;;;5092916;28;20066;-55
2023/08/22 13:44:25;;;;;;;9.25;5.35;;;28.40;89.30;;;;;;5092949;28;20020;-50
2023/08/22 13:47:11;;;;;;;6.75;4.50;;;28.70;89.20;;;;;;5092567;28;20024;-54
2023/08/22 13:49:57;;;;;;;11.20;6.13;;;28.70;89.10;;;;;;5092994;28;20379;-54
2023/08/22 13:52:43;;;;;;;8.48;4.72;;;28.80;88.10;;;;;;5088373;28;20029;-53
2023/08/22 13:55:29;;;;;;;11.50;4.78;;;28.90;87.80;;;;;;5073131;28;20035;-54
2023/08/22 13:58:16;;;;;;;6.82;4.85;;;28.70;88.20;;;;;;5072912;28;20057;-56
2023/08/22 14:01:01;;;;;;;8.80;4.97;;;28.90;87.90;;;;;;5072432;28;20111;-52
2023/08/22 14:03:48;;;;;;;8.93;5.35;;;29.00;87.70;;;;;;5057907;28;20040;-55
2023/08/22 14:06:34;;;;;;;9.65;5.20;;;29.20;87.80;;;;;;5071858;28;20031;-55
2023/08/22 14:09:20;;;;;;;8.48;4.97;;;29.40;87.40;;;;;;5072694;28;20033;-54
2023/08/22 14:12:06;;;;;;;8.32;4.97;;;29.30;86.80;;;;;;5065715;28;20050;-57
2023/08/22 14:14:52;;;;;;;7.75;5.43;;;29.30;87.50;;;;;;5077080;28;20031;-56
2023/08/22 14:17:38;;;;;;;9.18;4.60;;;29.20;87.30;;;;;;5071703;28;20060;-55
2023/08/22 14:20:24;;;;;;;9.85;4.97;;;29.50;86.70;;;;;;5072204;28;20028;-54
2023/08/22 14:23:10;;;;;;;8.02;4.80;;;29.60;86.50;;;;;;5072703;28;20039;-53
2023/08/22 14:25:56;;;;;;;9.10;5.07;;;29.40;86.00;;;;;;5072646;28;20025;-55